sensor_id;sensor_type;location;lat;lon;timestamp;P1;durP1;ratioP1;P2;durP2;ratioP2
80987;SDS011;70452;39.386;-3.210;2023-09-07T00:00:09;13.02;;;1.98;;
80987;SDS011;70452;39.386;-3.210;2023-09-07T00:02:38;8.80;;;1.80;;
80987;SDS011;70452;39.386;-3.210;2023-09-07T00:05:05;9.82;;;1.85;;
80987;SDS011;70452;39.386;-3.210;2023-09-07T00:07:31;10.95;;;2.13;;
80987;SDS011;70452;39.386;-3.210;2023-09-07T00:09:57;9.90;;;1.75;;
80987;SDS011;70452;39.386;-3.210;2023-09-07T00:12:23;10.48;;;2.03;;
80987;SDS011;70452;39.386;-3.210;2023-09-07T00:14:48;8.30;;;1.77;;
80987;SDS011;70452;39.386;-3.210;2023-09-07T00:17:14;8.68;;;1.52;;
80987;SDS011;70452;39.386;-3.210;2023-09-07T00:19:39;8.20;;;1.70;;
80987;SDS011;70452;39.386;-3.210;2023-09-07T00:22:05;10.85;;;1.58;;
80987;SDS011;70452;39.386;-3.210;2023-09-07T00:24:30;9.57;;;1.92;;
80987;SDS011;70452;39.386;-3.210;2023-09-07T00:26:59;6.43;;;1.92;;
80987;SDS011;70452;39.386;-3.210;2023-09-07T00:29:24;6.43;;;1.33;;
80987;SDS011;70452;39.386;-3.210;2023-09-07T00:31:52;6.55;;;1.75;;
80987;SDS011;70452;39.386;-3.210;2023-09-07T00:34:17;9.23;;;1.67;;
80987;SDS011;70452;39.386;-3.210;2023-09-07T00:36:43;8.77;;;1.48;;
80987;SDS011;70452;39.386;-3.210;2023-09-07T00:39:09;8.65;;;1.85;;
80987;SDS011;70452;39.386;-3.210;2023-09-07T00:41:35;7.78;;;1.38;;
80987;SDS011;70452;39.386;-3.210;2023-09-07T00:44:00;9.52;;;2.17;;
80987;SDS011;70452;39.386;-3.210;2023-09-07T00:46:26;11.75;;;2.08;;
80987;SDS011;70452;39.386;-3.210;2023-09-07T00:48:52;8.10;;;1.50;;
80987;SDS011;70452;39.386;-3.210;2023-09-07T00:51:18;9.50;;;1.80;;
80987;SDS011;70452;39.386;-3.210;2023-09-07T00:53:43;11.10;;;1.75;;
80987;SDS011;70452;39.386;-3.210;2023-09-07T00:56:09;7.65;;;1.45;;
80987;SDS011;70452;39.386;-3.210;2023-09-07T00:58:35;9.27;;;2.33;;
80987;SDS011;70452;39.386;-3.210;2023-09-07T01:01:02;10.35;;;1.95;;
80987;SDS011;70452;39.386;-3.210;2023-09-07T01:03:28;7.13;;;1.50;;
80987;SDS011;70452;39.386;-3.210;2023-09-07T01:06:13;12.15;;;2.10;;
80987;SDS011;70452;39.386;-3.210;2023-09-07T01:08:46;9.35;;;2.20;;
80987;SDS011;70452;39.386;-3.210;2023-09-07T01:11:15;9.35;;;1.83;;
80987;SDS011;70452;39.386;-3.210;2023-09-07T01:13:41;7.80;;;1.67;;
80987;SDS011;70452;39.386;-3.210;2023-09-07T01:16:08;5.90;;;1.52;;
80987;SDS011;70452;39.386;-3.210;2023-09-07T01:18:37;8.65;;;2.00;;
80987;SDS011;70452;39.386;-3.210;2023-09-07T01:21:06;7.88;;;2.03;;
80987;SDS011;70452;39.386;-3.210;2023-09-07T01:23:36;7.50;;;1.70;;
80987;SDS011;70452;39.386;-3.210;2023-09-07T01:26:05;7.90;;;1.52;;
80987;SDS011;70452;39.386;-3.210;2023-09-07T01:28:32;8.60;;;1.42;;
80987;SDS011;70452;39.386;-3.210;2023-09-07T01:30:58;9.57;;;1.65;;
80987;SDS011;70452;39.386;-3.210;2023-09-07T01:33:23;7.28;;;1.73;;
80987;SDS011;70452;39.386;-3.210;2023-09-07T01:35:49;9.02;;;1.52;;
80987;SDS011;70452;39.386;-3.210;2023-09-07T01:38:15;5.90;;;1.38;;
80987;SDS011;70452;39.386;-3.210;2023-09-07T01:40:40;9.10;;;1.30;;
80987;SDS011;70452;39.386;-3.210;2023-09-07T01:43:06;6.57;;;1.58;;
80987;SDS011;70452;39.386;-3.210;2023-09-07T01:45:31;7.45;;;1.50;;
80987;SDS011;70452;39.386;-3.210;2023-09-07T01:47:59;7.30;;;1.73;;
80987;SDS011;70452;39.386;-3.210;2023-09-07T01:50:25;7.63;;;1.75;;
80987;SDS011;70452;39.386;-3.210;2023-09-07T01:52:53;6.82;;;1.33;;
80987;SDS011;70452;39.386;-3.210;2023-09-07T01:55:20;7.32;;;1.52;;
80987;SDS011;70452;39.386;-3.210;2023-09-07T01:57:45;8.35;;;1.63;;
80987;SDS011;70452;39.386;-3.210;2023-09-07T02:00:12;8.10;;;1.70;;
80987;SDS011;70452;39.386;-3.210;2023-09-07T02:02:38;9.05;;;1.88;;
80987;SDS011;70452;39.386;-3.210;2023-09-07T02:05:03;6.78;;;1.40;;
80987;SDS011;70452;39.386;-3.210;2023-09-07T02:07:29;8.23;;;1.70;;
80987;SDS011;70452;39.386;-3.210;2023-09-07T02:09:55;5.78;;;1.33;;
80987;SDS011;70452;39.386;-3.210;2023-09-07T02:12:20;9.38;;;1.60;;
80987;SDS011;70452;39.386;-3.210;2023-09-07T02:14:48;8.20;;;1.75;;
80987;SDS011;70452;39.386;-3.210;2023-09-07T02:17:13;5.88;;;1.50;;
80987;SDS011;70452;39.386;-3.210;2023-09-07T02:19:43;7.05;;;1.67;;
80987;SDS011;70452;39.386;-3.210;2023-09-07T02:22:09;5.80;;;1.42;;
80987;SDS011;70452;39.386;-3.210;2023-09-07T02:24:34;12.48;;;2.55;;
80987;SDS011;70452;39.386;-3.210;2023-09-07T02:27:00;7.82;;;2.15;;
80987;SDS011;70452;39.386;-3.210;2023-09-07T02:29:25;6.75;;;2.10;;
80987;SDS011;70452;39.386;-3.210;2023-09-07T02:31:51;7.43;;;1.52;;
80987;SDS011;70452;39.386;-3.210;2023-09-07T02:34:17;5.97;;;1.55;;
80987;SDS011;70452;39.386;-3.210;2023-09-07T02:36:43;5.85;;;1.75;;
80987;SDS011;70452;39.386;-3.210;2023-09-07T02:39:08;5.70;;;1.45;;
80987;SDS011;70452;39.386;-3.210;2023-09-07T02:41:34;6.22;;;1.30;;
80987;SDS011;70452;39.386;-3.210;2023-09-07T02:44:00;5.82;;;1.30;;
80987;SDS011;70452;39.386;-3.210;2023-09-07T02:46:26;9.10;;;1.90;;
80987;SDS011;70452;39.386;-3.210;2023-09-07T02:48:51;4.85;;;1.27;;
80987;SDS011;70452;39.386;-3.210;2023-09-07T02:51:17;6.82;;;1.58;;
80987;SDS011;70452;39.386;-3.210;2023-09-07T02:53:42;8.55;;;1.70;;
80987;SDS011;70452;39.386;-3.210;2023-09-07T02:56:08;8.65;;;2.00;;
80987;SDS011;70452;39.386;-3.210;2023-09-07T02:58:35;6.53;;;1.73;;
80987;SDS011;70452;39.386;-3.210;2023-09-07T03:01:05;6.75;;;1.55;;
80987;SDS011;70452;39.386;-3.210;2023-09-07T03:03:33;8.57;;;1.83;;
80987;SDS011;70452;39.386;-3.210;2023-09-07T03:06:07;6.57;;;1.42;;
80987;SDS011;70452;39.386;-3.210;2023-09-07T03:08:33;5.80;;;1.83;;
80987;SDS011;70452;39.386;-3.210;2023-09-07T03:11:02;6.03;;;1.60;;
80987;SDS011;70452;39.386;-3.210;2023-09-07T03:13:31;6.07;;;1.50;;
80987;SDS011;70452;39.386;-3.210;2023-09-07T03:15:57;7.60;;;1.63;;
80987;SDS011;70452;39.386;-3.210;2023-09-07T03:18:22;11.23;;;2.90;;
80987;SDS011;70452;39.386;-3.210;2023-09-07T03:20:49;6.85;;;1.30;;
80987;SDS011;70452;39.386;-3.210;2023-09-07T03:23:15;7.95;;;1.92;;
80987;SDS011;70452;39.386;-3.210;2023-09-07T03:25:40;5.95;;;1.55;;
80987;SDS011;70452;39.386;-3.210;2023-09-07T03:28:06;7.72;;;1.65;;
80987;SDS011;70452;39.386;-3.210;2023-09-07T03:30:32;7.53;;;1.60;;
80987;SDS011;70452;39.386;-3.210;2023-09-07T03:32:58;6.38;;;1.50;;
80987;SDS011;70452;39.386;-3.210;2023-09-07T03:35:23;7.53;;;2.08;;
80987;SDS011;70452;39.386;-3.210;2023-09-07T03:37:49;6.15;;;1.77;;
80987;SDS011;70452;39.386;-3.210;2023-09-07T03:40:14;8.80;;;2.17;;
80987;SDS011;70452;39.386;-3.210;2023-09-07T03:42:40;6.88;;;1.63;;
80987;SDS011;70452;39.386;-3.210;2023-09-07T03:45:07;8.43;;;2.05;;
80987;SDS011;70452;39.386;-3.210;2023-09-07T03:47:32;7.88;;;1.50;;
80987;SDS011;70452;39.386;-3.210;2023-09-07T03:49:58;8.05;;;1.40;;
80987;SDS011;70452;39.386;-3.210;2023-09-07T03:52:24;7.43;;;1.90;;
80987;SDS011;70452;39.386;-3.210;2023-09-07T03:54:51;6.45;;;1.67;;
80987;SDS011;70452;39.386;-3.210;2023-09-07T03:57:18;5.93;;;1.80;;
80987;SDS011;70452;39.386;-3.210;2023-09-07T03:59:45;7.05;;;2.28;;
80987;SDS011;70452;39.386;-3.210;2023-09-07T04:02:11;5.80;;;1.90;;
80987;SDS011;70452;39.386;-3.210;2023-09-07T04:04:37;7.78;;;2.20;;
80987;SDS011;70452;39.386;-3.210;2023-09-07T04:07:03;7.45;;;1.85;;
80987;SDS011;70452;39.386;-3.210;2023-09-07T04:09:29;8.10;;;1.60;;
80987;SDS011;70452;39.386;-3.210;2023-09-07T04:11:56;8.98;;;2.17;;
80987;SDS011;70452;39.386;-3.210;2023-09-07T04:14:21;8.15;;;2.38;;
80987;SDS011;70452;39.386;-3.210;2023-09-07T04:16:47;6.93;;;1.98;;
80987;SDS011;70452;39.386;-3.210;2023-09-07T04:19:12;7.70;;;2.17;;
80987;SDS011;70452;39.386;-3.210;2023-09-07T04:21:38;8.75;;;2.83;;
80987;SDS011;70452;39.386;-3.210;2023-09-07T04:24:04;8.80;;;2.97;;
80987;SDS011;70452;39.386;-3.210;2023-09-07T04:26:30;6.97;;;2.53;;
80987;SDS011;70452;39.386;-3.210;2023-09-07T04:28:55;8.65;;;2.60;;
80987;SDS011;70452;39.386;-3.210;2023-09-07T04:31:21;12.35;;;2.50;;
80987;SDS011;70452;39.386;-3.210;2023-09-07T04:33:46;6.70;;;2.28;;
80987;SDS011;70452;39.386;-3.210;2023-09-07T04:36:15;7.13;;;2.13;;
80987;SDS011;70452;39.386;-3.210;2023-09-07T04:38:41;7.95;;;3.42;;
80987;SDS011;70452;39.386;-3.210;2023-09-07T04:41:07;8.88;;;2.22;;
80987;SDS011;70452;39.386;-3.210;2023-09-07T04:43:34;11.85;;;2.35;;
80987;SDS011;70452;39.386;-3.210;2023-09-07T04:45:59;8.50;;;2.15;;
80987;SDS011;70452;39.386;-3.210;2023-09-07T04:48:27;8.93;;;2.60;;
80987;SDS011;70452;39.386;-3.210;2023-09-07T04:50:59;9.70;;;2.67;;
80987;SDS011;70452;39.386;-3.210;2023-09-07T04:53:29;7.88;;;2.08;;
80987;SDS011;70452;39.386;-3.210;2023-09-07T04:55:57;7.40;;;2.20;;
80987;SDS011;70452;39.386;-3.210;2023-09-07T04:58:22;8.30;;;2.15;;
80987;SDS011;70452;39.386;-3.210;2023-09-07T05:00:48;9.63;;;2.70;;
80987;SDS011;70452;39.386;-3.210;2023-09-07T05:03:14;9.85;;;2.55;;
80987;SDS011;70452;39.386;-3.210;2023-09-07T05:05:40;8.85;;;2.72;;
80987;SDS011;70452;39.386;-3.210;2023-09-07T05:08:06;8.45;;;2.75;;
80987;SDS011;70452;39.386;-3.210;2023-09-07T05:10:35;8.65;;;2.53;;
80987;SDS011;70452;39.386;-3.210;2023-09-07T05:13:01;8.73;;;2.97;;
80987;SDS011;70452;39.386;-3.210;2023-09-07T05:15:27;10.07;;;2.80;;
80987;SDS011;70452;39.386;-3.210;2023-09-07T05:17:54;8.00;;;2.30;;
80987;SDS011;70452;39.386;-3.210;2023-09-07T05:20:21;11.80;;;4.15;;
80987;SDS011;70452;39.386;-3.210;2023-09-07T05:22:47;10.45;;;2.88;;
80987;SDS011;70452;39.386;-3.210;2023-09-07T05:25:12;6.75;;;2.67;;
80987;SDS011;70452;39.386;-3.210;2023-09-07T05:27:38;9.52;;;3.30;;
80987;SDS011;70452;39.386;-3.210;2023-09-07T05:30:04;9.10;;;2.65;;
80987;SDS011;70452;39.386;-3.210;2023-09-07T05:32:31;10.95;;;3.10;;
80987;SDS011;70452;39.386;-3.210;2023-09-07T05:34:57;9.23;;;2.92;;
80987;SDS011;70452;39.386;-3.210;2023-09-07T05:37:23;8.75;;;3.25;;
80987;SDS011;70452;39.386;-3.210;2023-09-07T05:39:48;8.63;;;3.08;;
80987;SDS011;70452;39.386;-3.210;2023-09-07T05:42:14;10.13;;;4.35;;
80987;SDS011;70452;39.386;-3.210;2023-09-07T05:44:40;9.13;;;2.80;;
80987;SDS011;70452;39.386;-3.210;2023-09-07T05:47:07;8.50;;;2.75;;
80987;SDS011;70452;39.386;-3.210;2023-09-07T05:49:32;9.52;;;2.67;;
80987;SDS011;70452;39.386;-3.210;2023-09-07T05:51:59;9.13;;;2.70;;
80987;SDS011;70452;39.386;-3.210;2023-09-07T05:54:24;10.15;;;3.50;;
80987;SDS011;70452;39.386;-3.210;2023-09-07T05:56:50;10.02;;;3.85;;
80987;SDS011;70452;39.386;-3.210;2023-09-07T05:59:15;9.10;;;2.33;;
80987;SDS011;70452;39.386;-3.210;2023-09-07T06:01:41;10.07;;;3.33;;
80987;SDS011;70452;39.386;-3.210;2023-09-07T06:04:09;7.68;;;2.92;;
80987;SDS011;70452;39.386;-3.210;2023-09-07T06:06:34;9.60;;;2.72;;
80987;SDS011;70452;39.386;-3.210;2023-09-07T06:09:00;9.73;;;3.42;;
80987;SDS011;70452;39.386;-3.210;2023-09-07T06:11:25;11.43;;;3.40;;
80987;SDS011;70452;39.386;-3.210;2023-09-07T06:13:51;10.93;;;3.10;;
80987;SDS011;70452;39.386;-3.210;2023-09-07T06:16:17;8.48;;;3.33;;
80987;SDS011;70452;39.386;-3.210;2023-09-07T06:18:43;7.65;;;2.83;;
80987;SDS011;70452;39.386;-3.210;2023-09-07T06:21:09;10.38;;;2.60;;
80987;SDS011;70452;39.386;-3.210;2023-09-07T06:23:34;7.75;;;3.17;;
80987;SDS011;70452;39.386;-3.210;2023-09-07T06:26:01;9.20;;;3.38;;
80987;SDS011;70452;39.386;-3.210;2023-09-07T06:28:27;9.88;;;3.50;;
80987;SDS011;70452;39.386;-3.210;2023-09-07T06:30:52;11.05;;;3.25;;
80987;SDS011;70452;39.386;-3.210;2023-09-07T06:33:18;9.68;;;3.35;;
80987;SDS011;70452;39.386;-3.210;2023-09-07T06:35:44;8.63;;;2.90;;
80987;SDS011;70452;39.386;-3.210;2023-09-07T06:38:12;9.55;;;3.05;;
80987;SDS011;70452;39.386;-3.210;2023-09-07T06:40:37;6.70;;;2.67;;
80987;SDS011;70452;39.386;-3.210;2023-09-07T06:43:03;11.80;;;3.22;;
80987;SDS011;70452;39.386;-3.210;2023-09-07T06:45:34;8.98;;;3.05;;
80987;SDS011;70452;39.386;-3.210;2023-09-07T06:48:02;11.68;;;4.07;;
80987;SDS011;70452;39.386;-3.210;2023-09-07T06:50:29;10.43;;;3.03;;
80987;SDS011;70452;39.386;-3.210;2023-09-07T06:52:54;9.45;;;3.08;;
80987;SDS011;70452;39.386;-3.210;2023-09-07T06:55:20;11.15;;;2.72;;
80987;SDS011;70452;39.386;-3.210;2023-09-07T06:57:45;8.63;;;3.10;;
80987;SDS011;70452;39.386;-3.210;2023-09-07T07:00:11;10.18;;;3.70;;
80987;SDS011;70452;39.386;-3.210;2023-09-07T07:02:37;9.63;;;2.60;;
80987;SDS011;70452;39.386;-3.210;2023-09-07T07:05:03;8.68;;;3.40;;
80987;SDS011;70452;39.386;-3.210;2023-09-07T07:07:29;7.95;;;2.80;;
80987;SDS011;70452;39.386;-3.210;2023-09-07T07:09:55;8.40;;;3.20;;
80987;SDS011;70452;39.386;-3.210;2023-09-07T07:12:20;9.80;;;2.75;;
80987;SDS011;70452;39.386;-3.210;2023-09-07T07:14:46;8.75;;;3.20;;
80987;SDS011;70452;39.386;-3.210;2023-09-07T07:17:12;15.15;;;3.40;;
80987;SDS011;70452;39.386;-3.210;2023-09-07T07:19:37;11.82;;;4.13;;
80987;SDS011;70452;39.386;-3.210;2023-09-07T07:22:03;14.05;;;3.35;;
80987;SDS011;70452;39.386;-3.210;2023-09-07T07:24:29;14.60;;;3.30;;
80987;SDS011;70452;39.386;-3.210;2023-09-07T07:26:54;11.18;;;3.10;;
80987;SDS011;70452;39.386;-3.210;2023-09-07T07:29:20;11.70;;;3.38;;
80987;SDS011;70452;39.386;-3.210;2023-09-07T07:31:45;10.82;;;3.97;;
80987;SDS011;70452;39.386;-3.210;2023-09-07T07:34:12;12.27;;;2.90;;
80987;SDS011;70452;39.386;-3.210;2023-09-07T07:36:38;15.88;;;3.60;;
80987;SDS011;70452;39.386;-3.210;2023-09-07T07:39:04;8.93;;;2.88;;
80987;SDS011;70452;39.386;-3.210;2023-09-07T07:41:32;11.85;;;3.20;;
80987;SDS011;70452;39.386;-3.210;2023-09-07T07:43:58;10.23;;;3.47;;
80987;SDS011;70452;39.386;-3.210;2023-09-07T07:46:23;12.73;;;2.92;;
80987;SDS011;70452;39.386;-3.210;2023-09-07T07:48:49;18.05;;;4.72;;
80987;SDS011;70452;39.386;-3.210;2023-09-07T07:51:14;15.95;;;3.65;;
80987;SDS011;70452;39.386;-3.210;2023-09-07T07:53:40;11.10;;;3.47;;
80987;SDS011;70452;39.386;-3.210;2023-09-07T07:56:06;12.52;;;4.05;;
80987;SDS011;70452;39.386;-3.210;2023-09-07T07:58:43;17.58;;;3.85;;
80987;SDS011;70452;39.386;-3.210;2023-09-07T08:01:16;13.52;;;3.38;;
80987;SDS011;70452;39.386;-3.210;2023-09-07T08:03:42;13.38;;;3.28;;
80987;SDS011;70452;39.386;-3.210;2023-09-07T08:06:09;13.77;;;4.10;;
80987;SDS011;70452;39.386;-3.210;2023-09-07T08:08:35;12.05;;;2.95;;
80987;SDS011;70452;39.386;-3.210;2023-09-07T08:11:01;20.35;;;4.88;;
80987;SDS011;70452;39.386;-3.210;2023-09-07T08:13:31;14.38;;;2.95;;
80987;SDS011;70452;39.386;-3.210;2023-09-07T08:16:03;16.70;;;4.18;;
80987;SDS011;70452;39.386;-3.210;2023-09-07T08:18:29;11.85;;;3.22;;
80987;SDS011;70452;39.386;-3.210;2023-09-07T08:20:57;15.00;;;4.45;;
80987;SDS011;70452;39.386;-3.210;2023-09-07T08:23:25;18.80;;;3.22;;
80987;SDS011;70452;39.386;-3.210;2023-09-07T08:25:51;15.90;;;3.28;;
80987;SDS011;70452;39.386;-3.210;2023-09-07T08:28:17;17.98;;;3.53;;
80987;SDS011;70452;39.386;-3.210;2023-09-07T08:30:44;18.13;;;4.40;;
80987;SDS011;70452;39.386;-3.210;2023-09-07T08:33:10;16.45;;;3.88;;
80987;SDS011;70452;39.386;-3.210;2023-09-07T08:35:35;18.35;;;4.45;;
80987;SDS011;70452;39.386;-3.210;2023-09-07T08:38:08;16.73;;;5.55;;
80987;SDS011;70452;39.386;-3.210;2023-09-07T08:40:38;17.52;;;3.80;;
80987;SDS011;70452;39.386;-3.210;2023-09-07T08:43:08;11.15;;;4.20;;
80987;SDS011;70452;39.386;-3.210;2023-09-07T08:45:37;22.85;;;3.78;;
80987;SDS011;70452;39.386;-3.210;2023-09-07T08:48:10;15.48;;;4.22;;
80987;SDS011;70452;39.386;-3.210;2023-09-07T08:50:37;22.00;;;6.00;;
80987;SDS011;70452;39.386;-3.210;2023-09-07T08:53:03;29.25;;;11.85;;
80987;SDS011;70452;39.386;-3.210;2023-09-07T08:55:29;21.52;;;4.68;;
80987;SDS011;70452;39.386;-3.210;2023-09-07T08:57:55;18.73;;;5.00;;
80987;SDS011;70452;39.386;-3.210;2023-09-07T09:00:21;24.70;;;4.28;;
80987;SDS011;70452;39.386;-3.210;2023-09-07T09:02:48;21.38;;;3.10;;
80987;SDS011;70452;39.386;-3.210;2023-09-07T09:05:14;22.38;;;4.25;;
80987;SDS011;70452;39.386;-3.210;2023-09-07T09:07:40;21.42;;;4.65;;
80987;SDS011;70452;39.386;-3.210;2023-09-07T09:10:06;27.13;;;5.40;;
80987;SDS011;70452;39.386;-3.210;2023-09-07T09:12:33;25.05;;;3.67;;
80987;SDS011;70452;39.386;-3.210;2023-09-07T09:14:59;22.73;;;3.95;;
80987;SDS011;70452;39.386;-3.210;2023-09-07T09:17:29;20.83;;;4.18;;
80987;SDS011;70452;39.386;-3.210;2023-09-07T09:19:54;15.02;;;2.83;;
80987;SDS011;70452;39.386;-3.210;2023-09-07T09:22:20;20.20;;;3.67;;
80987;SDS011;70452;39.386;-3.210;2023-09-07T09:24:50;16.83;;;3.03;;
80987;SDS011;70452;39.386;-3.210;2023-09-07T09:27:15;19.83;;;4.10;;
80987;SDS011;70452;39.386;-3.210;2023-09-07T09:29:42;19.10;;;3.17;;
80987;SDS011;70452;39.386;-3.210;2023-09-07T09:32:07;23.83;;;4.95;;
80987;SDS011;70452;39.386;-3.210;2023-09-07T09:34:33;26.13;;;5.18;;
80987;SDS011;70452;39.386;-3.210;2023-09-07T09:37:01;19.15;;;4.05;;
80987;SDS011;70452;39.386;-3.210;2023-09-07T09:39:28;23.42;;;6.30;;
80987;SDS011;70452;39.386;-3.210;2023-09-07T09:41:54;24.00;;;4.40;;
80987;SDS011;70452;39.386;-3.210;2023-09-07T09:44:21;23.17;;;5.43;;
80987;SDS011;70452;39.386;-3.210;2023-09-07T09:46:51;21.15;;;5.47;;
80987;SDS011;70452;39.386;-3.210;2023-09-07T09:49:19;29.55;;;9.93;;
80987;SDS011;70452;39.386;-3.210;2023-09-07T09:51:46;28.15;;;10.32;;
80987;SDS011;70452;39.386;-3.210;2023-09-07T09:54:16;23.60;;;4.60;;
80987;SDS011;70452;39.386;-3.210;2023-09-07T09:56:43;20.85;;;4.07;;
80987;SDS011;70452;39.386;-3.210;2023-09-07T09:59:09;19.23;;;3.53;;
80987;SDS011;70452;39.386;-3.210;2023-09-07T10:01:53;22.92;;;6.50;;
80987;SDS011;70452;39.386;-3.210;2023-09-07T10:04:20;21.92;;;3.88;;
80987;SDS011;70452;39.386;-3.210;2023-09-07T10:07:00;13.73;;;3.85;;
80987;SDS011;70452;39.386;-3.210;2023-09-07T10:09:29;20.08;;;4.15;;
80987;SDS011;70452;39.386;-3.210;2023-09-07T10:11:58;17.75;;;3.88;;
80987;SDS011;70452;39.386;-3.210;2023-09-07T10:14:26;15.38;;;4.20;;
80987;SDS011;70452;39.386;-3.210;2023-09-07T10:17:03;15.93;;;3.65;;
80987;SDS011;70452;39.386;-3.210;2023-09-07T10:19:29;19.25;;;3.95;;
80987;SDS011;70452;39.386;-3.210;2023-09-07T10:21:55;15.00;;;3.50;;
80987;SDS011;70452;39.386;-3.210;2023-09-07T10:24:28;19.67;;;4.13;;
80987;SDS011;70452;39.386;-3.210;2023-09-07T10:26:56;16.70;;;4.53;;
80987;SDS011;70452;39.386;-3.210;2023-09-07T10:29:22;14.95;;;3.35;;
80987;SDS011;70452;39.386;-3.210;2023-09-07T10:31:51;15.60;;;2.80;;
80987;SDS011;70452;39.386;-3.210;2023-09-07T10:34:17;11.13;;;2.75;;
80987;SDS011;70452;39.386;-3.210;2023-09-07T10:36:43;16.52;;;2.85;;
80987;SDS011;70452;39.386;-3.210;2023-09-07T10:39:09;14.43;;;3.72;;
80987;SDS011;70452;39.386;-3.210;2023-09-07T10:41:44;12.13;;;2.97;;
80987;SDS011;70452;39.386;-3.210;2023-09-07T10:44:10;11.60;;;3.40;;
80987;SDS011;70452;39.386;-3.210;2023-09-07T10:46:37;12.07;;;2.22;;
80987;SDS011;70452;39.386;-3.210;2023-09-07T10:49:05;13.43;;;3.47;;
80987;SDS011;70452;39.386;-3.210;2023-09-07T10:51:39;11.75;;;3.45;;
80987;SDS011;70452;39.386;-3.210;2023-09-07T10:54:15;11.95;;;2.78;;
80987;SDS011;70452;39.386;-3.210;2023-09-07T10:56:45;12.60;;;2.95;;
80987;SDS011;70452;39.386;-3.210;2023-09-07T10:59:14;12.77;;;3.33;;
80987;SDS011;70452;39.386;-3.210;2023-09-07T11:01:41;12.18;;;1.85;;
80987;SDS011;70452;39.386;-3.210;2023-09-07T11:04:07;16.15;;;2.67;;
80987;SDS011;70452;39.386;-3.210;2023-09-07T11:06:33;16.10;;;2.90;;
80987;SDS011;70452;39.386;-3.210;2023-09-07T11:09:00;12.57;;;2.30;;
80987;SDS011;70452;39.386;-3.210;2023-09-07T11:11:29;11.68;;;2.60;;
80987;SDS011;70452;39.386;-3.210;2023-09-07T11:13:58;15.45;;;3.08;;
80987;SDS011;70452;39.386;-3.210;2023-09-07T11:16:24;13.82;;;2.40;;
80987;SDS011;70452;39.386;-3.210;2023-09-07T11:18:52;10.93;;;2.65;;
80987;SDS011;70452;39.386;-3.210;2023-09-07T11:21:19;13.07;;;3.22;;
80987;SDS011;70452;39.386;-3.210;2023-09-07T11:23:46;17.48;;;2.72;;
80987;SDS011;70452;39.386;-3.210;2023-09-07T11:26:11;12.70;;;2.10;;
80987;SDS011;70452;39.386;-3.210;2023-09-07T11:28:38;17.42;;;2.35;;
80987;SDS011;70452;39.386;-3.210;2023-09-07T11:31:03;13.60;;;2.70;;
80987;SDS011;70452;39.386;-3.210;2023-09-07T11:33:32;15.27;;;2.88;;
80987;SDS011;70452;39.386;-3.210;2023-09-07T11:35:58;19.13;;;5.28;;
80987;SDS011;70452;39.386;-3.210;2023-09-07T11:38:28;16.10;;;2.50;;
80987;SDS011;70452;39.386;-3.210;2023-09-07T11:40:55;18.13;;;3.35;;
80987;SDS011;70452;39.386;-3.210;2023-09-07T11:43:21;16.95;;;3.17;;
80987;SDS011;70452;39.386;-3.210;2023-09-07T11:45:47;12.75;;;1.88;;
80987;SDS011;70452;39.386;-3.210;2023-09-07T11:48:15;13.50;;;2.72;;
80987;SDS011;70452;39.386;-3.210;2023-09-07T11:50:40;16.45;;;2.78;;
80987;SDS011;70452;39.386;-3.210;2023-09-07T11:53:07;15.23;;;2.47;;
80987;SDS011;70452;39.386;-3.210;2023-09-07T11:55:33;13.55;;;2.33;;
80987;SDS011;70452;39.386;-3.210;2023-09-07T11:58:00;13.15;;;3.08;;
80987;SDS011;70452;39.386;-3.210;2023-09-07T12:00:26;11.57;;;3.25;;
80987;SDS011;70452;39.386;-3.210;2023-09-07T12:02:52;14.13;;;3.75;;
80987;SDS011;70452;39.386;-3.210;2023-09-07T12:05:17;21.17;;;4.00;;
80987;SDS011;70452;39.386;-3.210;2023-09-07T12:07:44;14.38;;;3.80;;
80987;SDS011;70452;39.386;-3.210;2023-09-07T12:10:12;11.77;;;2.78;;
80987;SDS011;70452;39.386;-3.210;2023-09-07T12:12:41;17.60;;;2.72;;
80987;SDS011;70452;39.386;-3.210;2023-09-07T12:15:09;14.85;;;3.42;;
80987;SDS011;70452;39.386;-3.210;2023-09-07T12:17:36;13.85;;;3.05;;
80987;SDS011;70452;39.386;-3.210;2023-09-07T12:20:02;19.95;;;3.40;;
80987;SDS011;70452;39.386;-3.210;2023-09-07T12:22:30;20.67;;;3.05;;
80987;SDS011;70452;39.386;-3.210;2023-09-07T12:24:55;25.15;;;3.90;;
80987;SDS011;70452;39.386;-3.210;2023-09-07T12:27:21;16.73;;;3.10;;
80987;SDS011;70452;39.386;-3.210;2023-09-07T12:29:46;16.23;;;3.40;;
80987;SDS011;70452;39.386;-3.210;2023-09-07T12:32:12;17.67;;;3.42;;
80987;SDS011;70452;39.386;-3.210;2023-09-07T12:34:37;14.75;;;4.70;;
80987;SDS011;70452;39.386;-3.210;2023-09-07T12:37:04;16.05;;;3.45;;
80987;SDS011;70452;39.386;-3.210;2023-09-07T12:39:30;25.65;;;7.53;;
80987;SDS011;70452;39.386;-3.210;2023-09-07T12:41:56;18.77;;;3.65;;
80987;SDS011;70452;39.386;-3.210;2023-09-07T12:44:22;13.90;;;3.60;;
80987;SDS011;70452;39.386;-3.210;2023-09-07T12:46:47;16.15;;;2.88;;
80987;SDS011;70452;39.386;-3.210;2023-09-07T12:49:13;13.25;;;3.60;;
80987;SDS011;70452;39.386;-3.210;2023-09-07T12:51:40;14.23;;;3.70;;
80987;SDS011;70452;39.386;-3.210;2023-09-07T12:54:06;22.73;;;6.25;;
80987;SDS011;70452;39.386;-3.210;2023-09-07T12:56:31;18.75;;;3.63;;
80987;SDS011;70452;39.386;-3.210;2023-09-07T12:58:57;17.17;;;3.03;;
80987;SDS011;70452;39.386;-3.210;2023-09-07T13:01:24;16.58;;;3.70;;
80987;SDS011;70452;39.386;-3.210;2023-09-07T13:03:50;13.27;;;2.50;;
80987;SDS011;70452;39.386;-3.210;2023-09-07T13:06:16;18.13;;;3.88;;
80987;SDS011;70452;39.386;-3.210;2023-09-07T13:08:43;14.73;;;3.40;;
80987;SDS011;70452;39.386;-3.210;2023-09-07T13:11:13;16.15;;;4.10;;
80987;SDS011;70452;39.386;-3.210;2023-09-07T13:13:39;13.02;;;3.17;;
80987;SDS011;70452;39.386;-3.210;2023-09-07T13:16:05;16.75;;;4.22;;
80987;SDS011;70452;39.386;-3.210;2023-09-07T13:18:30;16.35;;;5.78;;
80987;SDS011;70452;39.386;-3.210;2023-09-07T13:20:59;18.98;;;4.60;;
80987;SDS011;70452;39.386;-3.210;2023-09-07T13:23:28;18.02;;;4.15;;
80987;SDS011;70452;39.386;-3.210;2023-09-07T13:25:55;27.50;;;12.23;;
80987;SDS011;70452;39.386;-3.210;2023-09-07T13:28:25;17.38;;;3.67;;
80987;SDS011;70452;39.386;-3.210;2023-09-07T13:30:51;20.77;;;6.70;;
80987;SDS011;70452;39.386;-3.210;2023-09-07T13:33:18;23.70;;;4.97;;
80987;SDS011;70452;39.386;-3.210;2023-09-07T13:35:43;18.10;;;3.10;;
80987;SDS011;70452;39.386;-3.210;2023-09-07T13:38:10;15.00;;;3.13;;
80987;SDS011;70452;39.386;-3.210;2023-09-07T13:40:36;13.00;;;3.50;;
80987;SDS011;70452;39.386;-3.210;2023-09-07T13:43:08;13.05;;;3.83;;
80987;SDS011;70452;39.386;-3.210;2023-09-07T13:45:33;13.85;;;3.53;;
80987;SDS011;70452;39.386;-3.210;2023-09-07T13:47:59;13.32;;;3.38;;
80987;SDS011;70452;39.386;-3.210;2023-09-07T13:50:25;18.15;;;4.47;;
80987;SDS011;70452;39.386;-3.210;2023-09-07T13:52:51;19.63;;;2.60;;
80987;SDS011;70452;39.386;-3.210;2023-09-07T13:55:16;18.17;;;2.72;;
80987;SDS011;70452;39.386;-3.210;2023-09-07T13:57:42;17.88;;;2.92;;
80987;SDS011;70452;39.386;-3.210;2023-09-07T14:00:09;20.60;;;3.55;;
80987;SDS011;70452;39.386;-3.210;2023-09-07T14:02:35;14.88;;;2.60;;
80987;SDS011;70452;39.386;-3.210;2023-09-07T14:05:00;20.33;;;5.05;;
80987;SDS011;70452;39.386;-3.210;2023-09-07T14:07:26;14.25;;;3.15;;
80987;SDS011;70452;39.386;-3.210;2023-09-07T14:09:52;19.35;;;3.25;;
80987;SDS011;70452;39.386;-3.210;2023-09-07T14:12:19;16.25;;;3.20;;
80987;SDS011;70452;39.386;-3.210;2023-09-07T14:14:44;22.35;;;3.42;;
80987;SDS011;70452;39.386;-3.210;2023-09-07T14:17:12;12.90;;;2.65;;
80987;SDS011;70452;39.386;-3.210;2023-09-07T14:19:38;18.92;;;3.80;;
80987;SDS011;70452;39.386;-3.210;2023-09-07T14:22:03;20.27;;;2.90;;